sensor_id;sensor_type;location;lat;lon;timestamp;pressure;altitude;pressure_sealevel;temperature;humidity
46876;BME280;32866;50.160;14.768;2022-08-23T00:01:47;99278.53;;;14.77;100.00
46876;BME280;32866;50.160;14.768;2022-08-23T00:04:15;99279.66;;;14.95;100.00
46876;BME280;32866;50.160;14.768;2022-08-23T00:06:43;99272.66;;;14.84;100.00
46876;BME280;32866;50.160;14.768;2022-08-23T00:09:09;99272.31;;;14.92;100.00
46876;BME280;32866;50.160;14.768;2022-08-23T00:11:41;99275.84;;;14.92;100.00
46876;BME280;32866;50.160;14.768;2022-08-23T00:16:40;99274.16;;;14.95;100.00
46876;BME280;32866;50.160;14.768;2022-08-23T00:19:07;99278.31;;;14.90;100.00
46876;BME280;32866;50.160;14.768;2022-08-23T00:21:34;99250.13;;;14.86;100.00
46876;BME280;32866;50.160;14.768;2022-08-23T00:24:00;99276.31;;;14.91;100.00
46876;BME280;32866;50.160;14.768;2022-08-23T00:26:26;99230.66;;;14.65;100.00
46876;BME280;32866;50.160;14.768;2022-08-23T00:28:51;99255.91;;;14.73;100.00
46876;BME280;32866;50.160;14.768;2022-08-23T00:31:18;99253.66;;;14.87;100.00
46876;BME280;32866;50.160;14.768;2022-08-23T00:33:44;99268.97;;;14.88;100.00
46876;BME280;32866;50.160;14.768;2022-08-23T00:36:09;99233.22;;;14.69;100.00
46876;BME280;32866;50.160;14.768;2022-08-23T00:38:35;99244.91;;;14.88;100.00
46876;BME280;32866;50.160;14.768;2022-08-23T00:41:00;99245.50;;;14.92;100.00
46876;BME280;32866;50.160;14.768;2022-08-23T00:43:33;99245.38;;;14.87;100.00
46876;BME280;32866;50.160;14.768;2022-08-23T00:49:18;99242.31;;;14.84;100.00
46876;BME280;32866;50.160;14.768;2022-08-23T00:52:06;99247.38;;;14.86;100.00
46876;BME280;32866;50.160;14.768;2022-08-23T00:54:34;99247.69;;;14.88;100.00
46876;BME280;32866;50.160;14.768;2022-08-23T00:57:05;99246.56;;;14.95;100.00
46876;BME280;32866;50.160;14.768;2022-08-23T00:59:32;99218.09;;;14.64;100.00
46876;BME280;32866;50.160;14.768;2022-08-23T01:01:58;99248.44;;;14.89;100.00
46876;BME280;32866;50.160;14.768;2022-08-23T01:04:26;99246.72;;;14.91;100.00
46876;BME280;32866;50.160;14.768;2022-08-23T01:07:10;99247.38;;;14.86;100.00
46876;BME280;32866;50.160;14.768;2022-08-23T01:09:40;99241.50;;;14.93;100.00
46876;BME280;32866;50.160;14.768;2022-08-23T01:12:16;99245.97;;;14.91;100.00
46876;BME280;32866;50.160;14.768;2022-08-23T01:14:46;99249.66;;;14.88;100.00
46876;BME280;32866;50.160;14.768;2022-08-23T01:17:19;99239.28;;;14.82;100.00
46876;BME280;32866;50.160;14.768;2022-08-23T01:19:53;99243.56;;;14.83;100.00
46876;BME280;32866;50.160;14.768;2022-08-23T01:22:32;99244.59;;;14.86;100.00
46876;BME280;32866;50.160;14.768;2022-08-23T01:25:03;99252.13;;;14.86;100.00
46876;BME280;32866;50.160;14.768;2022-08-23T01:27:29;99254.53;;;14.93;100.00
46876;BME280;32866;50.160;14.768;2022-08-23T01:29:54;99241.94;;;14.77;100.00
46876;BME280;32866;50.160;14.768;2022-08-23T01:32:20;99247.13;;;14.99;100.00
46876;BME280;32866;50.160;14.768;2022-08-23T01:34:46;99248.25;;;14.92;100.00
46876;BME280;32866;50.160;14.768;2022-08-23T01:37:11;99246.13;;;14.87;100.00
46876;BME280;32866;50.160;14.768;2022-08-23T01:39:37;99240.63;;;14.87;100.00
46876;BME280;32866;50.160;14.768;2022-08-23T01:42:03;99239.50;;;14.94;100.00
46876;BME280;32866;50.160;14.768;2022-08-23T01:44:29;99247.31;;;14.95;100.00
46876;BME280;32866;50.160;14.768;2022-08-23T01:46:55;99237.88;;;14.87;100.00
46876;BME280;32866;50.160;14.768;2022-08-23T01:49:20;99231.06;;;14.73;100.00
46876;BME280;32866;50.160;14.768;2022-08-23T01:51:45;99239.22;;;14.92;100.00
46876;BME280;32866;50.160;14.768;2022-08-23T01:54:11;99212.41;;;14.68;100.00
46876;BME280;32866;50.160;14.768;2022-08-23T01:56:37;99246.91;;;14.88;100.00
46876;BME280;32866;50.160;14.768;2022-08-23T01:59:03;99242.03;;;14.82;100.00
46876;BME280;32866;50.160;14.768;2022-08-23T02:01:28;99238.50;;;14.82;100.00
46876;BME280;32866;50.160;14.768;2022-08-23T02:03:53;99244.41;;;14.90;100.00
46876;BME280;32866;50.160;14.768;2022-08-23T02:06:19;99246.91;;;14.88;100.00
46876;BME280;32866;50.160;14.768;2022-08-23T02:08:45;99249.84;;;14.84;100.00
46876;BME280;32866;50.160;14.768;2022-08-23T02:11:33;99251.41;;;14.76;100.00
46876;BME280;32866;50.160;14.768;2022-08-23T02:14:00;99248.44;;;14.89;100.00
46876;BME280;32866;50.160;14.768;2022-08-23T02:16:29;99223.13;;;14.66;100.00
46876;BME280;32866;50.160;14.768;2022-08-23T02:18:56;99222.66;;;14.68;100.00
46876;BME280;32866;50.160;14.768;2022-08-23T02:21:22;99240.22;;;14.79;100.00
46876;BME280;32866;50.160;14.768;2022-08-23T02:23:49;99247.06;;;14.84;100.00
46876;BME280;32866;50.160;14.768;2022-08-23T02:26:16;99230.47;;;14.69;100.00
46876;BME280;32866;50.160;14.768;2022-08-23T02:28:41;99217.38;;;14.55;100.00
46876;BME280;32866;50.160;14.768;2022-08-23T02:31:06;99240.81;;;14.83;100.00
46876;BME280;32866;50.160;14.768;2022-08-23T02:33:32;99223.44;;;14.68;100.00
46876;BME280;32866;50.160;14.768;2022-08-23T02:35:57;99242.91;;;14.89;100.00
46876;BME280;32866;50.160;14.768;2022-08-23T02:38:23;99253.00;;;14.92;100.00
46876;BME280;32866;50.160;14.768;2022-08-23T02:40:48;99255.47;;;14.90;100.00
46876;BME280;32866;50.160;14.768;2022-08-23T02:43:14;99221.84;;;14.76;100.00
46876;BME280;32866;50.160;14.768;2022-08-23T02:45:40;99250.16;;;15.01;100.00
46876;BME280;32866;50.160;14.768;2022-08-23T02:48:06;99254.66;;;14.98;100.00
46876;BME280;32866;50.160;14.768;2022-08-23T02:50:33;99259.84;;;14.96;100.00
46876;BME280;32866;50.160;14.768;2022-08-23T02:52:58;99217.50;;;14.60;100.00
46876;BME280;32866;50.160;14.768;2022-08-23T02:55:24;99239.88;;;14.87;100.00
46876;BME280;32866;50.160;14.768;2022-08-23T02:57:49;99260.63;;;14.97;100.00
46876;BME280;32866;50.160;14.768;2022-08-23T03:00:17;99254.34;;;14.96;100.00
46876;BME280;32866;50.160;14.768;2022-08-23T03:02:42;99258.25;;;15.05;100.00
46876;BME280;32866;50.160;14.768;2022-08-23T03:05:09;99260.81;;;14.93;100.00
46876;BME280;32866;50.160;14.768;2022-08-23T03:07:35;99232.28;;;14.72;100.00
46876;BME280;32866;50.160;14.768;2022-08-23T03:10:00;99232.00;;;14.70;100.00
46876;BME280;32866;50.160;14.768;2022-08-23T03:12:26;99257.94;;;14.88;100.00
46876;BME280;32866;50.160;14.768;2022-08-23T03:14:52;99246.56;;;14.95;100.00
46876;BME280;32866;50.160;14.768;2022-08-23T03:17:18;99255.00;;;14.91;100.00
46876;BME280;32866;50.160;14.768;2022-08-23T03:19:43;99214.09;;;14.65;100.00
46876;BME280;32866;50.160;14.768;2022-08-23T03:22:09;99246.19;;;15.02;100.00
46876;BME280;32866;50.160;14.768;2022-08-23T03:24:35;99224.78;;;14.73;100.00
46876;BME280;32866;50.160;14.768;2022-08-23T03:27:00;99250.59;;;14.84;100.00
46876;BME280;32866;50.160;14.768;2022-08-23T03:29:26;99240.44;;;14.91;100.00
46876;BME280;32866;50.160;14.768;2022-08-23T03:31:51;99249.59;;;14.97;100.00
46876;BME280;32866;50.160;14.768;2022-08-23T03:34:17;99248.19;;;15.01;100.00
46876;BME280;32866;50.160;14.768;2022-08-23T03:36:42;99241.09;;;14.86;100.00
46876;BME280;32866;50.160;14.768;2022-08-23T03:39:07;99249.00;;;14.93;100.00
46876;BME280;32866;50.160;14.768;2022-08-23T03:41:33;99248.28;;;14.83;100.00
46876;BME280;32866;50.160;14.768;2022-08-23T03:43:58;99245.91;;;15.00;100.00
46876;BME280;32866;50.160;14.768;2022-08-23T03:46:23;99247.25;;;14.80;100.00
46876;BME280;32866;50.160;14.768;2022-08-23T03:48:54;99255.13;;;14.97;100.00
46876;BME280;32866;50.160;14.768;2022-08-23T03:51:21;99259.31;;;15.07;100.00
46876;BME280;32866;50.160;14.768;2022-08-23T03:53:47;99252.06;;;14.95;100.00
46876;BME280;32866;50.160;14.768;2022-08-23T03:56:31;99236.03;;;14.84;100.00
46876;BME280;32866;50.160;14.768;2022-08-23T03:58:58;99255.41;;;14.99;100.00
46876;BME280;32866;50.160;14.768;2022-08-23T04:01:24;99245.06;;;14.84;100.00
46876;BME280;32866;50.160;14.768;2022-08-23T04:03:49;99261.75;;;14.90;100.00
46876;BME280;32866;50.160;14.768;2022-08-23T04:06:15;99261.56;;;14.94;100.00
46876;BME280;32866;50.160;14.768;2022-08-23T04:08:41;99258.63;;;14.97;100.00
46876;BME280;32866;50.160;14.768;2022-08-23T04:11:07;99261.28;;;14.92;100.00
46876;BME280;32866;50.160;14.768;2022-08-23T04:13:33;99243.09;;;14.85;100.00
46876;BME280;32866;50.160;14.768;2022-08-23T04:15:59;99261.22;;;15.01;100.00
46876;BME280;32866;50.160;14.768;2022-08-23T04:18:27;99241.31;;;14.73;100.00
46876;BME280;32866;50.160;14.768;2022-08-23T04:20:54;99258.06;;;15.08;100.00
46876;BME280;32866;50.160;14.768;2022-08-23T04:23:20;99235.16;;;14.78;100.00
46876;BME280;32866;50.160;14.768;2022-08-23T04:25:45;99264.16;;;14.97;100.00
46876;BME280;32866;50.160;14.768;2022-08-23T04:28:11;99241.97;;;14.68;100.00
46876;BME280;32866;50.160;14.768;2022-08-23T04:30:36;99273.53;;;14.91;100.00
46876;BME280;32866;50.160;14.768;2022-08-23T04:33:02;99259.84;;;14.96;100.00
46876;BME280;32866;50.160;14.768;2022-08-23T04:35:27;99243.66;;;14.89;100.00
46876;BME280;32866;50.160;14.768;2022-08-23T04:37:53;99262.50;;;14.91;100.00
46876;BME280;32866;50.160;14.768;2022-08-23T04:40:18;99261.94;;;14.87;100.00
46876;BME280;32866;50.160;14.768;2022-08-23T04:43:02;99240.00;;;14.68;100.00
46876;BME280;32866;50.160;14.768;2022-08-23T04:45:29;99268.13;;;14.96;100.00
46876;BME280;32866;50.160;14.768;2022-08-23T04:47:56;99255.31;;;14.93;100.00
46876;BME280;32866;50.160;14.768;2022-08-23T04:50:22;99234.13;;;14.75;100.00
46876;BME280;32866;50.160;14.768;2022-08-23T04:52:47;99264.16;;;14.97;100.00
46876;BME280;32866;50.160;14.768;2022-08-23T04:55:12;99263.22;;;15.00;100.00
46876;BME280;32866;50.160;14.768;2022-08-23T04:57:38;99237.44;;;14.79;100.00
46876;BME280;32866;50.160;14.768;2022-08-23T05:00:07;99273.78;;;15.02;100.00
46876;BME280;32866;50.160;14.768;2022-08-23T05:05:10;99277.66;;;14.95;100.00
46876;BME280;32866;50.160;14.768;2022-08-23T05:07:37;99278.34;;;15.05;100.00
46876;BME280;32866;50.160;14.768;2022-08-23T05:10:07;99278.94;;;15.09;100.00
46876;BME280;32866;50.160;14.768;2022-08-23T05:12:33;99280.66;;;15.07;100.00
46876;BME280;32866;50.160;14.768;2022-08-23T05:14:58;99277.69;;;15.10;100.00
46876;BME280;32866;50.160;14.768;2022-08-23T05:17:24;99289.97;;;15.09;100.00
46876;BME280;32866;50.160;14.768;2022-08-23T05:19:49;99287.69;;;15.08;100.00
46876;BME280;32866;50.160;14.768;2022-08-23T05:22:14;99290.56;;;15.13;100.00
46876;BME280;32866;50.160;14.768;2022-08-23T05:24:40;99289.97;;;15.09;100.00
46876;BME280;32866;50.160;14.768;2022-08-23T05:27:05;99293.47;;;15.10;100.00
46876;BME280;32866;50.160;14.768;2022-08-23T05:29:30;99295.84;;;15.02;100.00
46876;BME280;32866;50.160;14.768;2022-08-23T05:31:56;99285.50;;;14.88;100.00
46876;BME280;32866;50.160;14.768;2022-08-23T05:34:21;99293.09;;;15.02;100.00
46876;BME280;32866;50.160;14.768;2022-08-23T05:36:47;99294.25;;;15.10;100.00
46876;BME280;32866;50.160;14.768;2022-08-23T05:39:12;99300.78;;;14.98;100.00
46876;BME280;32866;50.160;14.768;2022-08-23T05:41:37;99305.59;;;15.12;100.00
46876;BME280;32866;50.160;14.768;2022-08-23T05:44:04;99302.53;;;15.10;100.00
46876;BME280;32866;50.160;14.768;2022-08-23T05:46:30;99307.47;;;15.06;100.00
46876;BME280;32866;50.160;14.768;2022-08-23T05:48:55;99310.50;;;15.08;100.00
46876;BME280;32866;50.160;14.768;2022-08-23T05:51:29;99291.91;;;14.94;100.00
46876;BME280;32866;50.160;14.768;2022-08-23T05:54:13;99321.22;;;15.15;100.00
46876;BME280;32866;50.160;14.768;2022-08-23T05:56:40;99312.84;;;15.25;100.00
46876;BME280;32866;50.160;14.768;2022-08-23T05:59:09;99314.38;;;15.26;100.00
46876;BME280;32866;50.160;14.768;2022-08-23T06:01:35;99314.59;;;15.37;100.00
46876;BME280;32866;50.160;14.768;2022-08-23T06:04:03;99318.03;;;15.32;100.00
46876;BME280;32866;50.160;14.768;2022-08-23T06:06:30;99321.13;;;15.25;100.00
46876;BME280;32866;50.160;14.768;2022-08-23T06:08:56;99325.59;;;15.22;100.00
46876;BME280;32866;50.160;14.768;2022-08-23T06:11:23;99319.72;;;15.29;100.00
46876;BME280;32866;50.160;14.768;2022-08-23T06:13:51;99320.13;;;15.37;100.00
46876;BME280;32866;50.160;14.768;2022-08-23T06:16:20;99330.22;;;15.40;100.00
46876;BME280;32866;50.160;14.768;2022-08-23T06:18:46;99328.31;;;15.46;100.00
46876;BME280;32866;50.160;14.768;2022-08-23T06:21:12;99325.38;;;15.50;100.00
46876;BME280;32866;50.160;14.768;2022-08-23T06:23:39;99326.97;;;15.42;100.00
46876;BME280;32866;50.160;14.768;2022-08-23T06:26:14;99334.50;;;15.41;100.00
46876;BME280;32866;50.160;14.768;2022-08-23T06:28:40;99336.38;;;15.35;100.00
46876;BME280;32866;50.160;14.768;2022-08-23T06:31:07;99336.78;;;15.43;100.00
46876;BME280;32866;50.160;14.768;2022-08-23T06:33:33;99336.88;;;15.48;100.00
46876;BME280;32866;50.160;14.768;2022-08-23T06:36:07;99339.97;;;15.50;100.00
46876;BME280;32866;50.160;14.768;2022-08-23T06:38:33;99344.50;;;15.53;100.00
46876;BME280;32866;50.160;14.768;2022-08-23T06:41:00;99341.28;;;15.55;100.00
46876;BME280;32866;50.160;14.768;2022-08-23T06:43:26;99329.84;;;15.47;100.00
46876;BME280;32866;50.160;14.768;2022-08-23T06:45:51;99343.00;;;15.52;100.00
46876;BME280;32866;50.160;14.768;2022-08-23T06:48:17;99344.88;;;15.46;100.00
46876;BME280;32866;50.160;14.768;2022-08-23T06:50:42;99346.81;;;15.55;100.00
46876;BME280;32866;50.160;14.768;2022-08-23T06:53:07;99333.56;;;15.44;100.00
46876;BME280;32866;50.160;14.768;2022-08-23T06:55:33;99350.38;;;15.70;100.00
46876;BME280;32866;50.160;14.768;2022-08-23T06:57:58;99355.59;;;15.68;100.00
46876;BME280;32866;50.160;14.768;2022-08-23T07:00:23;99354.56;;;15.66;100.00
46876;BME280;32866;50.160;14.768;2022-08-23T07:02:49;99337.34;;;15.47;100.00
46876;BME280;32866;50.160;14.768;2022-08-23T07:05:14;99365.97;;;15.73;100.00
46876;BME280;32866;50.160;14.768;2022-08-23T07:07:44;99362.66;;;15.69;100.00
46876;BME280;32866;50.160;14.768;2022-08-23T07:10:09;99363.09;;;15.77;100.00
46876;BME280;32866;50.160;14.768;2022-08-23T07:12:38;99366.31;;;15.75;100.00
46876;BME280;32866;50.160;14.768;2022-08-23T07:15:06;99369.72;;;15.70;100.00
46876;BME280;32866;50.160;14.768;2022-08-23T07:17:32;99353.69;;;15.59;100.00
46876;BME280;32866;50.160;14.768;2022-08-23T07:19:57;99378.41;;;15.78;100.00
46876;BME280;32866;50.160;14.768;2022-08-23T07:22:22;99387.41;;;15.64;100.00
46876;BME280;32866;50.160;14.768;2022-08-23T07:24:48;99393.88;;;15.61;100.00
46876;BME280;32866;50.160;14.768;2022-08-23T07:27:14;99389.22;;;15.67;100.00
46876;BME280;32866;50.160;14.768;2022-08-23T07:29:39;99391.03;;;15.70;100.00
46876;BME280;32866;50.160;14.768;2022-08-23T07:32:05;99385.94;;;15.77;100.00
46876;BME280;32866;50.160;14.768;2022-08-23T07:34:30;99389.25;;;15.82;100.00
46876;BME280;32866;50.160;14.768;2022-08-23T07:36:56;99362.34;;;15.52;100.00
46876;BME280;32866;50.160;14.768;2022-08-23T07:39:21;99392.09;;;15.72;100.00
46876;BME280;32866;50.160;14.768;2022-08-23T07:41:47;99378.47;;;15.69;100.00
46876;BME280;32866;50.160;14.768;2022-08-23T07:44:13;99396.63;;;15.85;100.00
46876;BME280;32866;50.160;14.768;2022-08-23T07:46:40;99391.69;;;15.89;100.00
46876;BME280;32866;50.160;14.768;2022-08-23T07:49:08;99372.16;;;15.68;100.00
46876;BME280;32866;50.160;14.768;2022-08-23T07:51:35;99390.53;;;15.95;100.00
46876;BME280;32866;50.160;14.768;2022-08-23T07:54:05;99384.16;;;16.04;100.00
46876;BME280;32866;50.160;14.768;2022-08-23T07:56:31;99385.78;;;16.11;100.00
46876;BME280;32866;50.160;14.768;2022-08-23T07:58:58;99389.38;;;16.17;100.00
46876;BME280;32866;50.160;14.768;2022-08-23T08:01:26;99396.44;;;16.18;100.00
46876;BME280;32866;50.160;14.768;2022-08-23T08:03:53;99393.03;;;16.23;100.00
46876;BME280;32866;50.160;14.768;2022-08-23T08:06:30;99402.94;;;16.15;100.00
46876;BME280;32866;50.160;14.768;2022-08-23T08:08:57;99403.53;;;16.19;100.00
46876;BME280;32866;50.160;14.768;2022-08-23T08:11:24;99378.34;;;16.17;100.00
46876;BME280;32866;50.160;14.768;2022-08-23T08:13:52;99412.19;;;16.27;100.00
46876;BME280;32866;50.160;14.768;2022-08-23T08:16:30;99410.56;;;16.20;100.00
46876;BME280;32866;50.160;14.768;2022-08-23T08:18:58;99403.13;;;16.41;100.00
46876;BME280;32866;50.160;14.768;2022-08-23T08:21:24;99400.66;;;16.43;100.00
46876;BME280;32866;50.160;14.768;2022-08-23T08:26:25;99402.34;;;16.56;100.00
46876;BME280;32866;50.160;14.768;2022-08-23T08:28:52;99405.31;;;16.52;100.00
46876;BME280;32866;50.160;14.768;2022-08-23T08:31:18;99400.91;;;16.60;100.00
46876;BME280;32866;50.160;14.768;2022-08-23T08:33:43;99402.72;;;16.63;100.00
46876;BME280;32866;50.160;14.768;2022-08-23T08:36:27;99407.84;;;16.70;100.00
46876;BME280;32866;50.160;14.768;2022-08-23T08:38:53;99403.66;;;16.75;100.00
46876;BME280;32866;50.160;14.768;2022-08-23T08:41:19;99412.81;;;16.81;100.00
46876;BME280;32866;50.160;14.768;2022-08-23T08:44:09;99420.53;;;16.92;100.00
46876;BME280;32866;50.160;14.768;2022-08-23T08:49:08;99402.22;;;16.80;100.00
46876;BME280;32866;50.160;14.768;2022-08-23T08:51:41;99423.63;;;17.15;100.00
46876;BME280;32866;50.160;14.768;2022-08-23T08:54:12;99424.75;;;17.23;100.00
46876;BME280;32866;50.160;14.768;2022-08-23T08:56:40;99426.06;;;17.28;100.00
46876;BME280;32866;50.160;14.768;2022-08-23T08:59:11;99432.69;;;17.36;100.00
46876;BME280;32866;50.160;14.768;2022-08-23T09:01:39;99433.47;;;17.36;100.00
46876;BME280;32866;50.160;14.768;2022-08-23T09:04:05;99436.38;;;17.27;100.00
46876;BME280;32866;50.160;14.768;2022-08-23T09:06:49;99414.88;;;17.01;100.00
46876;BME280;32866;50.160;14.768;2022-08-23T09:12:10;99434.44;;;17.54;100.00
46876;BME280;32866;50.160;14.768;2022-08-23T09:14:59;99436.09;;;17.46;100.00
46876;BME280;32866;50.160;14.768;2022-08-23T09:17:31;99441.84;;;17.42;100.00
46876;BME280;32866;50.160;14.768;2022-08-23T09:20:02;99445.78;;;17.35;100.00
46876;BME280;32866;50.160;14.768;2022-08-23T09:22:43;99449.19;;;17.45;100.00
46876;BME280;32866;50.160;14.768;2022-08-23T09:25:11;99449.09;;;17.39;100.00
46876;BME280;32866;50.160;14.768;2022-08-23T09:27:39;99452.50;;;17.49;100.00
46876;BME280;32866;50.160;14.768;2022-08-23T09:30:06;99448.44;;;17.45;100.00
46876;BME280;32866;50.160;14.768;2022-08-23T09:32:35;99445.84;;;17.41;100.00
46876;BME280;32866;50.160;14.768;2022-08-23T09:35:23;99448.16;;;17.42;100.00
46876;BME280;32866;50.160;14.768;2022-08-23T09:38:00;99447.41;;;17.42;100.00
46876;BME280;32866;50.160;14.768;2022-08-23T09:40:30;99449.56;;;17.73;100.00
46876;BME280;32866;50.160;14.768;2022-08-23T09:45:39;99448.28;;;17.74;100.00
46876;BME280;32866;50.160;14.768;2022-08-23T09:48:06;99447.06;;;17.75;100.00
46876;BME280;32866;50.160;14.768;2022-08-23T09:50:50;99418.78;;;17.51;100.00
46876;BME280;32866;50.160;14.768;2022-08-23T09:53:23;99448.03;;;17.93;100.00
46876;BME280;32866;50.160;14.768;2022-08-23T09:55:51;99445.25;;;17.93;100.00
46876;BME280;32866;50.160;14.768;2022-08-23T09:58:37;99442.00;;;17.74;100.00
46876;BME280;32866;50.160;14.768;2022-08-23T10:03:29;99455.63;;;18.19;100.00
46876;BME280;32866;50.160;14.768;2022-08-23T10:05:59;99460.88;;;18.16;100.00
46876;BME280;32866;50.160;14.768;2022-08-23T10:08:32;99457.34;;;18.16;100.00
46876;BME280;32866;50.160;14.768;2022-08-23T10:11:10;99439.19;;;18.15;100.00
46876;BME280;32866;50.160;14.768;2022-08-23T10:13:39;99458.28;;;18.33;100.00
46876;BME280;32866;50.160;14.768;2022-08-23T10:21:36;99456.78;;;18.38;100.00
46876;BME280;32866;50.160;14.768;2022-08-23T10:24:14;99469.19;;;18.43;100.00
46876;BME280;32866;50.160;14.768;2022-08-23T10:30:07;99470.53;;;18.53;100.00
46876;BME280;32866;50.160;14.768;2022-08-23T10:32:48;99466.78;;;18.30;100.00
46876;BME280;32866;50.160;14.768;2022-08-23T10:38:45;99473.78;;;18.46;100.00
46876;BME280;32866;50.160;14.768;2022-08-23T10:49:53;99466.91;;;18.41;100.00
46876;BME280;32866;50.160;14.768;2022-08-23T10:52:32;99469.75;;;18.47;100.00
46876;BME280;32866;50.160;14.768;2022-08-23T10:55:08;99480.63;;;18.50;100.00
46876;BME280;32866;50.160;14.768;2022-08-23T10:57:54;99483.44;;;18.56;100.00
46876;BME280;32866;50.160;14.768;2022-08-23T11:00:21;99475.00;;;18.71;100.00
46876;BME280;32866;50.160;14.768;2022-08-23T11:05:41;99473.09;;;18.57;100.00
46876;BME280;32866;50.160;14.768;2022-08-23T11:08:30;99483.66;;;18.52;100.00
46876;BME280;32866;50.160;14.768;2022-08-23T11:10:56;99480.44;;;18.60;100.00
46876;BME280;32866;50.160;14.768;2022-08-23T11:13:23;99487.91;;;18.74;100.00
46876;BME280;32866;50.160;14.768;2022-08-23T11:18:35;99490.47;;;18.51;100.00
46876;BME280;32866;50.160;14.768;2022-08-23T11:21:02;99496.47;;;18.76;100.00
46876;BME280;32866;50.160;14.768;2022-08-23T11:23:54;99485.63;;;18.78;100.00
46876;BME280;32866;50.160;14.768;2022-08-23T11:26:59;99495.72;;;18.76;100.00
46876;BME280;32866;50.160;14.768;2022-08-23T11:29:26;99495.59;;;18.59;100.00
46876;BME280;32866;50.160;14.768;2022-08-23T11:37:52;99500.75;;;18.45;100.00
46876;BME280;32866;50.160;14.768;2022-08-23T11:40:58;99494.53;;;18.56;100.00
46876;BME280;32866;50.160;14.768;2022-08-23T11:43:31;99492.25;;;18.54;100.00
46876;BME280;32866;50.160;14.768;2022-08-23T11:57:34;99502.03;;;18.50;100.00
46876;BME280;32866;50.160;14.768;2022-08-23T12:00:32;99509.19;;;18.30;100.00
46876;BME280;32866;50.160;14.768;2022-08-23T12:08:29;99506.13;;;18.28;100.00
46876;BME280;32866;50.160;14.768;2022-08-23T12:18:32;99508.72;;;17.91;100.00
46876;BME280;32866;50.160;14.768;2022-08-23T12:21:01;99518.41;;;18.22;100.00
46876;BME280;32866;50.160;14.768;2022-08-23T12:23:27;99511.91;;;18.04;100.00
46876;BME280;32866;50.160;14.768;2022-08-23T12:25:59;99522.31;;;18.09;100.00
46876;BME280;32866;50.160;14.768;2022-08-23T12:28:30;99522.69;;;17.96;100.00
46876;BME280;32866;50.160;14.768;2022-08-23T12:42:02;99516.94;;;18.26;100.00
46876;BME280;32866;50.160;14.768;2022-08-23T12:44:29;99520.75;;;18.29;100.00
46876;BME280;32866;50.160;14.768;2022-08-23T12:46:55;99496.59;;;18.09;100.00
46876;BME280;32866;50.160;14.768;2022-08-23T12:49:32;99519.66;;;18.21;100.00
46876;BME280;32866;50.160;14.768;2022-08-23T12:52:00;99517.72;;;18.27;100.00
46876;BME280;32866;50.160;14.768;2022-08-23T12:54:41;99521.28;;;18.33;100.00
46876;BME280;32866;50.160;14.768;2022-08-23T12:57:12;99514.72;;;18.30;100.00
46876;BME280;32866;50.160;14.768;2022-08-23T12:59:46;99522.25;;;18.30;100.00
46876;BME280;32866;50.160;14.768;2022-08-23T13:02:25;99518.91;;;18.20;100.00
46876;BME280;32866;50.160;14.768;2022-08-23T13:04:55;99519.22;;;18.28;100.00
46876;BME280;32866;50.160;14.768;2022-08-23T13:07:23;99487.53;;;18.08;100.00
46876;BME280;32866;50.160;14.768;2022-08-23T13:09:50;99525.44;;;18.43;100.00
46876;BME280;32866;50.160;14.768;2022-08-23T13:12:17;99522.06;;;18.33;100.00
46876;BME280;32866;50.160;14.768;2022-08-23T13:14:48;99524.91;;;18.39;100.00
46876;BME280;32866;50.160;14.768;2022-08-23T13:19:49;99517.28;;;18.34;100.00
46876;BME280;32866;50.160;14.768;2022-08-23T13:22:19;99521.47;;;18.24;100.00
46876;BME280;32866;50.160;14.768;2022-08-23T13:27:16;99527.06;;;18.29;100.00
46876;BME280;32866;50.160;14.768;2022-08-23T13:29:54;99529.63;;;18.33;100.00
46876;BME280;32866;50.160;14.768;2022-08-23T13:35:20;99524.63;;;18.37;100.00
46876;BME280;32866;50.160;14.768;2022-08-23T13:37:46;99526.91;;;18.39;100.00
46876;BME280;32866;50.160;14.768;2022-08-23T13:40:15;99527.50;;;18.48;100.00
46876;BME280;32866;50.160;14.768;2022-08-23T13:42:47;99529.84;;;18.56;100.00
46876;BME280;32866;50.160;14.768;2022-08-23T13:45:18;99496.78;;;18.26;100.00
46876;BME280;32866;50.160;14.768;2022-08-23T13:47:49;99528.31;;;18.54;100.00
46876;BME280;32866;50.160;14.768;2022-08-23T13:50:31;99535.91;;;18.54;100.00
46876;BME280;32866;50.160;14.768;2022-08-23T13:52:57;99515.69;;;18.27;100.00
46876;BME280;32866;50.160;14.768;2022-08-23T13:55:22;99526.22;;;18.44;100.00
46876;BME280;32866;50.160;14.768;2022-08-23T13:57:48;99506.19;;;18.34;100.00
46876;BME280;32866;50.160;14.768;2022-08-23T14:00:13;99523.03;;;18.30;100.00
46876;BME280;32866;50.160;14.768;2022-08-23T14:02:39;99510.09;;;18.22;100.00
46876;BME280;32866;50.160;14.768;2022-08-23T14:05:05;99528.81;;;18.27;100.00
46876;BME280;32866;50.160;14.768;2022-08-23T14:07:31;99509.81;;;18.20;100.00
46876;BME280;32866;50.160;14.768;2022-08-23T14:09:56;99515.47;;;18.31;100.00
46876;BME280;32866;50.160;14.768;2022-08-23T14:12:25;99525.00;;;18.24;100.00
46876;BME280;32866;50.160;14.768;2022-08-23T14:14:51;99510.63;;;18.26;100.00
46876;BME280;32866;50.160;14.768;2022-08-23T14:17:17;99524.41;;;18.41;100.00
46876;BME280;32866;50.160;14.768;2022-08-23T14:19:43;99524.63;;;18.16;100.00
46876;BME280;32866;50.160;14.768;2022-08-23T14:22:11;99511.38;;;18.00;100.00
46876;BME280;32866;50.160;14.768;2022-08-23T14:24:37;99527.41;;;18.37;100.00
46876;BME280;32866;50.160;14.768;2022-08-23T14:27:02;99528.50;;;18.45;100.00